Terminal Aerodrome Forecast
Issued by NWS

Home | Current Version | Previous Version | Text Only | Print | Product List | Glossary On
Versions: 1 2 3 4 5 6 7 8 9 10 11 12 13 14 15 16 17 18 19 20
742
FTUS43 KFGF 070523 CCA
TAFDVL
TAF COR
KDVL 070523Z 0706/0806 28027G35KT 6SM -RA BKN010
      TEMPO 0706/0707 2SM -RASN BKN008
     FM070900 30025G32KT P6SM BKN015
     FM071300 31030G45KT 1/4SM -SN BLSN BKN006
     FM080000 33022G30KT P6SM BKN015=

USA.gov is the U.S. government's official web portal to all federal, state and local government web resources and services.